Terminal Aerodrome Forecast
Issued by NWS

Home | Current Version | Previous Version | Text Only | Print | Product List | Glossary On
Versions: 1 2 3 4 5 6 7 8 9 10 11 12 13 14 15 16 17 18 19 20 21 22 23 24 25
397
FTUS42 KCAE 291140
TAFOGB
TAF
KOGB 291140Z 2912/3012 36012KT 5SM -SHRA BR BKN009 OVC017
      WS010/36030KT
      TEMPO 2912/2915 4SM SHRA BR BKN006 OVC009
     FM291600 36012G18KT 5SM -SHRA BR OVC015
     FM300300 36010G16KT 3SM -SHRA BR OVC012=

USA.gov is the U.S. government's official web portal to all federal, state and local government web resources and services.